4XCDN LLHZ-LLHZ

Flight info

Callsign 4XCDN
Flight time 0h 2m
Altitude 3000
Route ROUNDERS
Aircraft C152/L-V/N

Departure

Time 2026-04-25 17:23
Airport Herzliya Airport (LLHZ)

Arrival

Time 2026-04-25 17:25
Airport Herzliya Airport (LLHZ)
Time Latitude Longitude Altitude Speed Heading
2026-04-25 17:08 32.18047 34.83219 96 ft 0 kts 20°
2026-04-25 17:14 32.18053 34.83222 96 ft 5 kts 19°
2026-04-25 17:14 32.18052 34.83264 97 ft 7 kts 110°
2026-04-25 17:14 32.18026 34.83347 100 ft 11 kts 109°
2026-04-25 17:15 32.18005 34.83421 101 ft 8 kts 109°
2026-04-25 17:15 32.17986 34.83487 103 ft 9 kts 109°
2026-04-25 17:15 32.17964 34.83560 104 ft 11 kts 108°
2026-04-25 17:15 32.17944 34.83627 107 ft 6 kts 108°
2026-04-25 17:16 32.17926 34.83687 110 ft 7 kts 109°
2026-04-25 17:16 32.17908 34.83748 114 ft 9 kts 109°
2026-04-25 17:16 32.17894 34.83796 116 ft 5 kts 109°
2026-04-25 17:16 32.17882 34.83835 115 ft 5 kts 106°
2026-04-25 17:17 32.17880 34.83847 117 ft 0 kts 93°
2026-04-25 17:21 32.17891 34.83861 118 ft 6 kts
2026-04-25 17:21 32.17921 34.83817 119 ft 14 kts 290°
2026-04-25 17:21 32.17980 34.83621 116 ft 45 kts 285°
2026-04-25 17:22 32.18104 34.83212 211 ft 61 kts 290°
2026-04-25 17:22 32.18218 34.82885 314 ft 64 kts 301°
2026-04-25 17:22 32.18841 34.82827 500 ft 78 kts
2026-04-25 17:22 32.19315 34.83110 672 ft 82 kts 57°
2026-04-25 17:23 32.19291 34.83789 779 ft 91 kts 109°
2026-04-25 17:23 32.19034 34.84525 828 ft 103 kts 113°
2026-04-25 17:23 32.18689 34.85248 753 ft 89 kts 143°
2026-04-25 17:23 32.18149 34.85300 587 ft 77 kts 193°
2026-04-25 17:24 32.17689 34.85067 454 ft 66 kts 237°
2026-04-25 17:24 32.17690 34.84565 321 ft 63 kts 293°
2026-04-25 17:24 32.17843 34.84095 197 ft 63 kts 288°
2026-04-25 17:24 32.17977 34.83634 108 ft 54 kts 288°
2026-04-25 17:25 32.18043 34.83416 100 ft 15 kts 291°
2026-04-25 17:25 32.18039 34.83327 99 ft 5 kts 219°
2026-04-25 17:25 32.18044 34.83289 98 ft 5 kts 291°
2026-04-25 17:25 32.18066 34.83214 97 ft 14 kts 288°
2026-04-25 17:26 32.18098 34.83109 107 ft 14 kts 289°
2026-04-25 17:26 32.18137 34.83009 98 ft 13 kts 301°
2026-04-25 17:26 32.18171 34.82910 97 ft 12 kts 291°
2026-04-25 17:26 32.18195 34.82827 97 ft 8 kts 293°
2026-04-25 17:27 32.18234 34.82828 97 ft 5 kts 348°
2026-04-25 17:27 32.18223 34.82800 97 ft 4 kts 184°
2026-04-25 17:27 32.18219 34.82802 97 ft 0 kts 107°